首页
METAR-TAF:

METAR-TAF

机场 :

仁川國際機場

仁川国际机场, 大韩民国

纬度: 37-28N, 经度: 126-27E, 海拔: 7米

当前天气观测

该预报发布于33分钟前的11:00 UTC
风速8节,风向西南
温度 6°C
湿度 65%
气压 1019 hPa
能见度10公里或以上
散云层高于4000英尺

METAR: RKSI 181100Z 22008KT 9999 SCT040 06/00 Q1019 NOSIG

时间: 20:33 (11:33 UTC)

预报

该预报发布于6小时和33分钟前的05:00 UTC
预报有效从18日的 06点(UTC)到 19日的 12点(UTC)
风速8节,风向西转西南
能見度: 7000
少量云层高于3000英尺
成为
从 18日的 16点(UTC)到 18日的 17点(UTC)
风速8节,风向西北
短暂存在
从 18日的 18点(UTC)到 18日的 19点(UTC)
多云层高于2500英尺
成为
从 19日的 03点(UTC)到 19日的 04点(UTC)
风速6节,风向西转西南
成为
从 19日的 10点(UTC)到 19日的 11点(UTC)
风速6节,风向东南
能見度: 4200
轻雾

TAF: RKSI 180500Z 1806/1912 24008KT 7000 FEW030 TNM01/1821Z TX07/1906Z BECMG 1816/1817 31008KT TEMPO 1818/1819 BKN025 BECMG 1903/1904 24006KT BECMG 1910/1911 13006KT 4200 BR

超过4000个机场的气象观测和天气预报(METAR&TAF报告)。

可查询的气象台以黄色和红色小点在地图上表示。

将鼠标移到小点上方,可查看气象台名称。

然后点击查看天气观测和预报。

如需切换地图:点击带黑十字的绿色按钮放大地图;点击带横线的绿色按钮缩小地图;或者点击绿色箭头查看邻近地区的地图。


METAR-TAF: